createdAt,value
2022-08-26T00:01:19.478Z,46.10
2022-08-26T00:04:12.017Z,39.60
2022-08-26T00:06:55.044Z,41.80
2022-08-26T00:09:40.166Z,38.20
2022-08-26T00:12:22.169Z,38.20
2022-08-26T00:15:20.453Z,35.00
2022-08-26T00:18:02.755Z,40.40
2022-08-26T00:20:45.470Z,40.70
2022-08-26T00:23:28.853Z,38.20
2022-08-26T00:26:11.125Z,34.70
2022-08-26T00:28:53.225Z,48.30
2022-08-26T00:31:35.178Z,38.90
2022-08-26T00:34:19.367Z,43.30
2022-08-26T00:37:01.764Z,43.70
2022-08-26T00:39:44.270Z,38.20
2022-08-26T00:42:28.008Z,52.50
2022-08-26T00:45:11.754Z,46.60
2022-08-26T00:48:01.425Z,39.90
2022-08-26T00:50:54.893Z,44.50
2022-08-26T00:53:42.230Z,46.60
2022-08-26T00:56:54.116Z,45.00
2022-08-26T00:59:36.535Z,42.10
2022-08-26T01:02:21.794Z,42.50
2022-08-26T01:05:05.025Z,44.20
2022-08-26T01:07:47.740Z,46.90
2022-08-26T01:10:32.093Z,43.50
2022-08-26T01:13:14.603Z,43.90
2022-08-26T01:16:00.397Z,39.70
2022-08-26T01:18:45.050Z,41.70
2022-08-26T01:21:29.444Z,33.20
2022-08-26T01:24:12.427Z,44.60
2022-08-26T01:27:02.710Z,47.90
2022-08-26T01:29:47.379Z,48.80
2022-08-26T01:32:33.483Z,51.70
2022-08-26T01:35:15.881Z,39.90
2022-08-26T01:37:58.495Z,45.60
2022-08-26T01:40:43.769Z,44.20
2022-08-26T01:43:27.942Z,45.20
2022-08-26T01:46:12.232Z,42.20
2022-08-26T01:48:57.445Z,50.60
2022-08-26T01:51:41.333Z,44.60
2022-08-26T01:54:25.125Z,53.70
2022-08-26T01:57:08.250Z,51.40
2022-08-26T01:59:51.735Z,59.50
2022-08-26T02:02:33.782Z,52.40
2022-08-26T02:05:20.336Z,47.70
2022-08-26T02:08:03.535Z,43.80
2022-08-26T02:10:46.024Z,49.30
2022-08-26T02:13:31.509Z,45.60
2022-08-26T02:16:17.960Z,49.60
2022-08-26T02:19:01.712Z,49.40
2022-08-26T02:21:51.971Z,47.10
2022-08-26T02:24:56.155Z,53.20
2022-08-26T02:27:38.155Z,49.80
2022-08-26T02:30:25.396Z,59.00
2022-08-26T02:33:08.237Z,65.00
2022-08-26T02:35:50.394Z,54.40
2022-08-26T02:38:33.007Z,72.00
2022-08-26T02:41:15.568Z,62.00
2022-08-26T02:44:00.589Z,67.40
2022-08-26T02:46:46.941Z,75.70
2022-08-26T02:49:30.727Z,64.10
2022-08-26T02:52:12.828Z,57.70
2022-08-26T02:54:55.266Z,62.20
2022-08-26T02:57:37.852Z,67.00
2022-08-26T03:00:20.304Z,74.00
2022-08-26T03:03:02.459Z,67.30
2022-08-26T03:05:44.724Z,73.80
2022-08-26T03:08:27.019Z,67.10
2022-08-26T03:11:09.480Z,65.40
2022-08-26T03:13:54.141Z,68.20
2022-08-26T03:16:37.981Z,68.00
2022-08-26T03:19:21.513Z,63.30
2022-08-26T03:22:05.047Z,71.70
2022-08-26T03:24:46.943Z,79.90
2022-08-26T03:27:28.839Z,66.80
2022-08-26T03:30:35.112Z,56.50
2022-08-26T03:33:17.412Z,65.30
2022-08-26T03:36:00.776Z,77.90
2022-08-26T03:38:43.661Z,67.70
2022-08-26T03:41:27.503Z,68.70
2022-08-26T03:44:09.501Z,63.20
2022-08-26T03:46:54.242Z,70.70
2022-08-26T03:49:37.559Z,57.80
2022-08-26T03:52:19.591Z,57.70
2022-08-26T03:55:01.589Z,63.90
2022-08-26T03:57:45.122Z,63.50
2022-08-26T04:00:27.031Z,62.70
2022-08-26T04:03:14.657Z,65.20
2022-08-26T04:06:00.131Z,67.30
2022-08-26T04:08:42.127Z,52.00
2022-08-26T04:11:28.649Z,68.20
2022-08-26T04:14:17.619Z,56.50
2022-08-26T04:17:05.119Z,69.90
2022-08-26T04:19:47.937Z,70.20
2022-08-26T04:22:29.835Z,59.60
2022-08-26T04:25:12.753Z,59.10
2022-08-26T04:27:55.180Z,61.10
2022-08-26T04:30:38.185Z,52.40
2022-08-26T04:33:32.521Z,55.00
2022-08-26T04:36:15.130Z,60.70
2022-08-26T04:38:57.797Z,57.30
2022-08-26T04:41:40.075Z,54.70
2022-08-26T04:44:27.688Z,63.90
2022-08-26T04:47:09.627Z,62.20
2022-08-26T04:49:57.875Z,59.30
2022-08-26T04:52:39.870Z,56.20
2022-08-26T04:55:25.330Z,54.70
2022-08-26T04:58:23.630Z,55.10
2022-08-26T05:01:06.044Z,53.60
2022-08-26T05:03:49.022Z,50.90
2022-08-26T05:06:30.955Z,52.40
2022-08-26T05:09:19.304Z,51.60
2022-08-26T05:12:01.300Z,56.50
2022-08-26T05:14:43.196Z,55.30
2022-08-26T05:17:27.371Z,62.00
2022-08-26T05:20:09.754Z,57.50
2022-08-26T05:22:52.775Z,52.70
2022-08-26T05:25:41.981Z,64.40
2022-08-26T05:28:23.882Z,59.50
2022-08-26T05:31:17.713Z,56.20
2022-08-26T05:34:03.649Z,60.20
2022-08-26T05:36:46.318Z,62.50
2022-08-26T05:39:28.213Z,53.80
2022-08-26T05:42:10.519Z,52.30
2022-08-26T05:44:55.783Z,46.50
2022-08-26T05:47:38.201Z,53.50
2022-08-26T05:50:23.319Z,49.10
2022-08-26T05:53:07.677Z,51.80
2022-08-26T05:55:52.797Z,55.40
2022-08-26T05:58:36.881Z,50.40
2022-08-26T06:01:21.947Z,49.70
2022-08-26T06:04:06.267Z,43.20
2022-08-26T06:06:48.578Z,48.40
2022-08-26T06:09:30.979Z,44.20
2022-08-26T06:12:13.183Z,50.70
2022-08-26T06:14:57.843Z,51.40
2022-08-26T06:17:39.818Z,48.20
2022-08-26T06:20:21.841Z,46.60
2022-08-26T06:23:23.089Z,46.90
2022-08-26T06:26:06.111Z,38.30
2022-08-26T06:28:48.007Z,37.80
2022-08-26T06:31:33.644Z,51.20
2022-08-26T06:34:20.197Z,42.10
2022-08-26T06:37:03.633Z,40.70
2022-08-26T06:39:46.342Z,36.20
2022-08-26T06:42:28.134Z,36.70
2022-08-26T06:45:10.691Z,38.70
2022-08-26T06:47:53.155Z,34.30
2022-08-26T06:50:35.397Z,33.30
2022-08-26T06:53:17.560Z,34.70
2022-08-26T06:56:04.988Z,37.10
2022-08-26T06:58:47.541Z,37.60
2022-08-26T07:01:33.805Z,32.10
2022-08-26T07:04:20.253Z,35.20
2022-08-26T07:07:04.551Z,35.80
2022-08-26T07:09:47.059Z,33.90
2022-08-26T07:12:32.334Z,30.20
2022-08-26T07:15:15.356Z,30.20
2022-08-26T07:17:57.662Z,28.50
2022-08-26T07:20:40.786Z,29.40
2022-08-26T07:23:24.944Z,31.10
2022-08-26T07:26:10.927Z,27.40
2022-08-26T07:28:57.533Z,26.60
2022-08-26T07:31:42.383Z,30.50
2022-08-26T07:34:25.263Z,24.30
2022-08-26T07:37:08.914Z,32.20
2022-08-26T07:39:51.688Z,24.80
2022-08-26T07:42:34.694Z,27.00
2022-08-26T07:45:17.511Z,29.10
2022-08-26T07:47:59.757Z,25.20
2022-08-26T07:50:50.116Z,25.80
2022-08-26T07:53:34.870Z,23.10
2022-08-26T07:56:16.871Z,30.60
2022-08-26T07:58:59.071Z,25.80
2022-08-26T08:01:41.459Z,23.60
2022-08-26T08:04:27.983Z,31.10
2022-08-26T08:07:11.545Z,24.80
2022-08-26T08:09:54.846Z,23.40
2022-08-26T08:12:38.735Z,25.80
2022-08-26T08:15:25.200Z,26.10
2022-08-26T08:18:07.223Z,19.00
2022-08-26T08:21:10.784Z,26.70
2022-08-26T08:24:00.779Z,22.60
2022-08-26T08:26:42.676Z,22.30
2022-08-26T08:29:25.087Z,25.30
2022-08-26T08:32:11.631Z,21.40
2022-08-26T08:34:57.887Z,21.50
2022-08-26T08:37:41.318Z,25.40
2022-08-26T08:40:26.472Z,21.00
2022-08-26T08:43:38.661Z,18.20
2022-08-26T08:46:20.723Z,20.80
2022-08-26T08:49:04.442Z,24.90
2022-08-26T08:52:02.443Z,23.90
2022-08-26T08:54:46.145Z,20.80
2022-08-26T08:57:55.779Z,19.90
2022-08-26T09:01:14.264Z,21.40
2022-08-26T09:04:02.292Z,18.00
2022-08-26T09:06:50.431Z,21.80
2022-08-26T09:09:47.589Z,16.20
2022-08-26T09:12:36.656Z,19.10
2022-08-26T09:15:35.925Z,18.90
2022-08-26T09:18:53.279Z,20.10
2022-08-26T09:21:37.930Z,17.70
2022-08-26T09:24:24.406Z,16.70
2022-08-26T09:27:41.459Z,16.30
2022-08-26T09:30:36.218Z,17.60
2022-08-26T09:33:31.849Z,15.60
2022-08-26T09:36:37.775Z,16.90
2022-08-26T09:39:29.459Z,16.80
2022-08-26T09:45:04.404Z,15.30
2022-08-26T09:47:57.566Z,14.80
2022-08-26T09:51:24.112Z,12.90
2022-08-26T09:54:08.080Z,10.90
2022-08-26T09:56:50.259Z,12.30
2022-08-26T09:59:32.359Z,11.40
2022-08-26T10:02:30.231Z,12.70
2022-08-26T10:05:20.057Z,10.80
2022-08-26T10:08:42.457Z,14.10
2022-08-26T10:11:48.214Z,14.50
2022-08-26T10:14:49.771Z,11.20
2022-08-26T10:17:42.984Z,14.20
2022-08-26T10:20:37.348Z,11.70
2022-08-26T10:23:24.993Z,9.40
2022-08-26T10:26:16.059Z,11.20
2022-08-26T10:29:09.322Z,13.80
2022-08-26T10:32:02.511Z,10.40
2022-08-26T10:34:45.708Z,13.10
2022-08-26T10:37:37.742Z,12.70
2022-08-26T10:40:28.183Z,13.00
2022-08-26T10:43:17.717Z,12.70
2022-08-26T10:46:06.872Z,13.30
2022-08-26T10:51:56.008Z,13.50
2022-08-26T10:54:39.804Z,17.10
2022-08-26T10:57:43.512Z,17.60
2022-08-26T11:00:55.443Z,11.90
2022-08-26T11:03:54.514Z,14.00
2022-08-26T11:06:40.604Z,13.60
2022-08-26T11:09:45.485Z,13.90
2022-08-26T11:12:37.198Z,14.10
2022-08-26T11:15:27.048Z,14.40
2022-08-26T11:18:12.293Z,13.30
2022-08-26T11:20:54.116Z,11.10
2022-08-26T11:23:50.465Z,12.80
2022-08-26T11:26:56.041Z,13.20
2022-08-26T11:30:02.271Z,12.90
2022-08-26T11:32:59.842Z,12.90
2022-08-26T11:35:46.068Z,14.00
2022-08-26T11:38:30.920Z,14.90
2022-08-26T11:41:21.185Z,18.00
2022-08-26T11:44:07.690Z,15.90
2022-08-26T11:46:59.980Z,10.20
2022-08-26T11:49:41.922Z,11.30
2022-08-26T11:52:25.256Z,13.30
2022-08-26T11:55:12.345Z,13.90
2022-08-26T11:58:00.962Z,12.70
2022-08-26T12:00:59.964Z,13.30
2022-08-26T12:03:44.778Z,15.00
2022-08-26T12:06:34.660Z,9.90
2022-08-26T12:09:28.650Z,13.00
2022-08-26T12:12:17.726Z,9.50
2022-08-26T12:15:20.602Z,9.60
2022-08-26T12:18:28.757Z,12.20
2022-08-26T12:21:22.491Z,11.20
2022-08-26T12:24:06.633Z,13.00
2022-08-26T12:26:48.734Z,9.10
2022-08-26T12:29:30.652Z,12.80
2022-08-26T12:32:18.370Z,11.20
2022-08-26T12:35:09.697Z,10.70
2022-08-26T12:37:55.159Z,11.70
2022-08-26T12:40:43.639Z,11.60
2022-08-26T12:43:46.218Z,10.20
2022-08-26T12:46:30.282Z,7.80
2022-08-26T12:49:12.336Z,9.20
2022-08-26T12:51:54.334Z,11.10
2022-08-26T12:54:56.816Z,11.30
2022-08-26T12:57:39.425Z,11.10
2022-08-26T13:00:37.145Z,12.30
2022-08-26T13:03:29.636Z,10.20
2022-08-26T13:06:31.668Z,13.90
2022-08-26T13:09:19.437Z,10.40
2022-08-26T13:12:02.126Z,13.40
2022-08-26T13:14:44.252Z,10.50
2022-08-26T13:17:30.967Z,9.30
2022-08-26T13:20:13.166Z,13.40
2022-08-26T13:22:59.095Z,9.40
2022-08-26T13:25:41.466Z,10.60
2022-08-26T13:28:23.357Z,11.20
2022-08-26T13:31:05.975Z,11.70
2022-08-26T13:33:48.787Z,11.80
2022-08-26T13:36:31.399Z,11.20
2022-08-26T13:39:13.400Z,13.30
2022-08-26T13:41:55.295Z,13.90
2022-08-26T13:44:39.546Z,15.80
2022-08-26T13:47:22.103Z,9.10
2022-08-26T13:50:05.589Z,9.90
2022-08-26T13:52:47.689Z,9.60
2022-08-26T13:55:29.687Z,10.40
2022-08-26T13:58:12.504Z,10.10
2022-08-26T14:00:56.714Z,12.30
2022-08-26T14:03:39.631Z,9.90
2022-08-26T14:06:21.777Z,12.00
2022-08-26T14:09:04.947Z,9.90
2022-08-26T14:11:53.915Z,10.70
2022-08-26T14:14:36.988Z,11.60
2022-08-26T14:17:22.774Z,10.70
2022-08-26T14:20:07.970Z,11.20
2022-08-26T14:23:12.569Z,12.00
2022-08-26T14:25:52.731Z,12.10
2022-08-26T14:28:35.752Z,9.20
2022-08-26T14:31:18.225Z,13.00
2022-08-26T14:34:03.951Z,9.70
2022-08-26T14:36:45.843Z,9.00
2022-08-26T14:39:27.786Z,9.60
2022-08-26T14:42:10.453Z,11.80
2022-08-26T14:44:56.647Z,11.20
2022-08-26T14:47:38.649Z,11.70
2022-08-26T14:50:26.321Z,11.80
2022-08-26T14:53:27.331Z,9.90
2022-08-26T14:56:13.693Z,9.80
2022-08-26T14:58:58.182Z,11.70
2022-08-26T15:01:40.187Z,9.80
2022-08-26T15:04:23.347Z,9.30
2022-08-26T15:07:05.609Z,16.60
2022-08-26T15:09:47.811Z,9.50
2022-08-26T15:12:32.372Z,8.30
2022-08-26T15:15:17.457Z,12.40
2022-08-26T15:17:59.378Z,10.60
2022-08-26T15:20:41.333Z,8.10
2022-08-26T15:23:23.638Z,14.60
2022-08-26T15:26:10.156Z,10.20
2022-08-26T15:28:52.550Z,11.70
2022-08-26T15:31:35.113Z,17.80
2022-08-26T15:34:17.469Z,11.80
2022-08-26T15:36:59.570Z,10.80
2022-08-26T15:39:43.615Z,12.10
2022-08-26T15:42:25.559Z,9.00
2022-08-26T15:45:07.975Z,12.30
2022-08-26T15:48:01.232Z,12.20
2022-08-26T15:50:58.234Z,13.00
2022-08-26T15:53:40.128Z,10.00
2022-08-26T15:56:28.962Z,14.30
2022-08-26T15:59:13.403Z,11.60
2022-08-26T16:01:57.426Z,10.80
2022-08-26T16:04:39.692Z,12.40
2022-08-26T16:07:21.689Z,11.10
2022-08-26T16:10:04.142Z,12.30
2022-08-26T16:12:47.016Z,13.50
2022-08-26T16:15:29.016Z,9.60
2022-08-26T16:18:11.424Z,12.20
2022-08-26T16:21:12.373Z,11.90
2022-08-26T16:23:57.866Z,10.40
2022-08-26T16:26:42.066Z,10.10
2022-08-26T16:29:24.810Z,9.50
2022-08-26T16:32:09.164Z,14.40
2022-08-26T16:34:56.575Z,11.60
2022-08-26T16:37:39.492Z,11.70
2022-08-26T16:40:22.409Z,13.80
2022-08-26T16:43:04.633Z,13.20
2022-08-26T16:45:46.530Z,14.00
2022-08-26T16:48:28.422Z,11.10
2022-08-26T16:51:16.248Z,11.30
2022-08-26T16:53:59.343Z,11.10
2022-08-26T16:56:41.279Z,15.30
2022-08-26T16:59:24.141Z,12.30
2022-08-26T17:02:06.431Z,11.00
2022-08-26T17:04:50.246Z,15.20
2022-08-26T17:07:32.651Z,12.80
2022-08-26T17:10:14.649Z,13.10
2022-08-26T17:12:57.158Z,15.50
2022-08-26T17:15:39.097Z,12.70
2022-08-26T17:18:27.543Z,11.80
2022-08-26T17:21:12.656Z,12.60
2022-08-26T17:23:55.394Z,10.90
2022-08-26T17:26:38.211Z,13.40
2022-08-26T17:29:20.718Z,12.20
2022-08-26T17:32:03.596Z,14.60
2022-08-26T17:34:45.534Z,11.40
2022-08-26T17:37:28.613Z,10.80
2022-08-26T17:40:16.273Z,12.40
2022-08-26T17:42:59.516Z,14.30
2022-08-26T17:45:42.757Z,14.50
2022-08-26T17:48:24.946Z,9.90
2022-08-26T17:51:13.587Z,14.70
2022-08-26T17:53:56.110Z,15.20
2022-08-26T17:56:38.723Z,16.80
2022-08-26T17:59:20.619Z,17.70
2022-08-26T18:02:04.304Z,12.80
2022-08-26T18:04:48.067Z,11.10
2022-08-26T18:07:31.938Z,8.00
2022-08-26T18:10:21.568Z,11.50
2022-08-26T18:13:03.616Z,12.30
2022-08-26T18:15:47.107Z,13.50
2022-08-26T18:18:29.045Z,13.40
2022-08-26T18:21:16.608Z,11.60
2022-08-26T18:23:58.775Z,13.50
2022-08-26T18:26:48.236Z,16.30
2022-08-26T18:29:30.297Z,9.90
2022-08-26T18:32:12.079Z,15.30
2022-08-26T18:34:53.983Z,13.80
2022-08-26T18:37:35.934Z,16.10
2022-08-26T18:40:17.882Z,14.90
2022-08-26T18:43:00.958Z,11.50
2022-08-26T18:45:44.735Z,11.90
2022-08-26T18:48:27.000Z,12.30
2022-08-26T18:51:15.243Z,11.30
2022-08-26T18:53:57.963Z,13.10
2022-08-26T18:56:40.883Z,12.00
2022-08-26T18:59:28.389Z,13.50
2022-08-26T19:02:12.968Z,16.30
2022-08-26T19:04:55.066Z,18.10
2022-08-26T19:07:39.616Z,19.10
2022-08-26T19:10:28.380Z,17.30
2022-08-26T19:13:10.457Z,20.10
2022-08-26T19:15:52.699Z,12.90
2022-08-26T19:18:45.251Z,16.90
2022-08-26T19:21:39.489Z,17.70
2022-08-26T19:24:27.302Z,17.50
2022-08-26T19:27:16.823Z,16.60
2022-08-26T19:30:00.357Z,15.10
2022-08-26T19:32:42.355Z,14.80
2022-08-26T19:35:24.252Z,17.10
2022-08-26T19:38:07.990Z,16.00
2022-08-26T19:40:49.989Z,14.10
2022-08-26T19:43:32.805Z,13.30
2022-08-26T19:46:18.688Z,18.40
2022-08-26T19:49:04.615Z,17.90
2022-08-26T19:51:48.324Z,15.50
2022-08-26T19:54:30.835Z,13.00
2022-08-26T19:57:12.934Z,16.10
2022-08-26T19:59:55.240Z,15.70
2022-08-26T20:02:37.900Z,12.40
2022-08-26T20:05:23.003Z,14.60
2022-08-26T20:08:05.516Z,13.70
2022-08-26T20:10:49.219Z,18.10
2022-08-26T20:13:32.050Z,15.40
2022-08-26T20:16:15.336Z,17.50
2022-08-26T20:19:17.591Z,11.70
2022-08-26T20:22:00.204Z,18.70
2022-08-26T20:24:42.201Z,12.20
2022-08-26T20:27:38.142Z,17.80
2022-08-26T20:30:22.484Z,14.10
2022-08-26T20:33:04.584Z,18.20
2022-08-26T20:35:47.140Z,17.70
2022-08-26T20:38:29.089Z,21.20
2022-08-26T20:41:11.983Z,15.20
2022-08-26T20:43:55.544Z,15.10
2022-08-26T20:46:37.974Z,16.10
2022-08-26T20:49:19.994Z,17.60
2022-08-26T20:52:03.559Z,13.10
2022-08-26T20:54:45.457Z,21.60
2022-08-26T20:57:27.322Z,15.00
2022-08-26T21:00:12.343Z,16.40
2022-08-26T21:02:56.904Z,16.80
2022-08-26T21:05:38.799Z,15.90
2022-08-26T21:08:21.513Z,14.80
2022-08-26T21:11:03.901Z,13.00
2022-08-26T21:14:04.516Z,15.30
2022-08-26T21:16:51.545Z,18.50
2022-08-26T21:19:34.287Z,16.80
2022-08-26T21:22:16.421Z,18.00
2022-08-26T21:24:58.693Z,18.60
2022-08-26T21:27:40.588Z,19.00
2022-08-26T21:30:23.202Z,24.10
2022-08-26T21:33:05.301Z,15.90
2022-08-26T21:35:54.452Z,15.00
2022-08-26T21:38:37.216Z,17.90
2022-08-26T21:41:22.231Z,14.10
2022-08-26T21:44:04.457Z,16.40
2022-08-26T21:46:47.124Z,18.60
2022-08-26T21:49:29.068Z,17.30
2022-08-26T21:52:12.977Z,18.70
2022-08-26T21:55:00.025Z,18.40
2022-08-26T21:57:42.129Z,13.30
2022-08-26T22:00:24.536Z,18.70
2022-08-26T22:03:06.377Z,18.30
2022-08-26T22:05:52.388Z,16.70
2022-08-26T22:08:34.878Z,14.80
2022-08-26T22:11:18.864Z,13.80
2022-08-26T22:14:00.779Z,16.50
2022-08-26T22:16:44.468Z,14.60
2022-08-26T22:19:34.063Z,12.90
2022-08-26T22:22:23.354Z,15.00
2022-08-26T22:25:05.753Z,17.80
2022-08-26T22:27:47.614Z,16.80
2022-08-26T22:30:29.496Z,17.10
2022-08-26T22:33:11.428Z,19.90
2022-08-26T22:35:53.296Z,22.10
2022-08-26T22:38:35.109Z,16.20
2022-08-26T22:41:18.398Z,15.90
2022-08-26T22:44:02.793Z,14.60
2022-08-26T22:46:46.458Z,16.30
2022-08-26T22:49:28.778Z,16.30
2022-08-26T22:52:10.706Z,16.00
2022-08-26T22:54:53.476Z,20.40
2022-08-26T22:57:35.372Z,15.70
2022-08-26T23:00:17.372Z,15.20
2022-08-26T23:03:00.544Z,18.40
2022-08-26T23:05:44.234Z,16.00
2022-08-26T23:08:27.872Z,17.40
2022-08-26T23:11:11.863Z,15.90
2022-08-26T23:13:53.709Z,15.50
2022-08-26T23:16:39.358Z,17.50
2022-08-26T23:19:22.826Z,15.60
2022-08-26T23:22:04.824Z,13.00
2022-08-26T23:24:46.724Z,18.80
2022-08-26T23:27:29.596Z,14.80
2022-08-26T23:30:16.212Z,19.80
2022-08-26T23:32:58.490Z,16.00
2022-08-26T23:35:40.756Z,19.00
2022-08-26T23:38:23.166Z,12.70
2022-08-26T23:41:05.160Z,15.30
2022-08-26T23:43:47.933Z,17.30
2022-08-26T23:46:29.875Z,19.70
2022-08-26T23:49:11.974Z,17.10
2022-08-26T23:52:13.376Z,16.00
2022-08-26T23:54:55.733Z,21.20
2022-08-26T23:57:38.246Z,16.60
